sensor_id;sensor_type;location;lat;lon;timestamp;pressure;altitude;pressure_sealevel;temperature;humidity
34073;BME280;20346;52.702;16.886;2023-01-30T00:00:04;100509.02;;;0.56;84.32
34073;BME280;20346;52.702;16.886;2023-01-30T00:02:51;100505.46;;;0.56;84.24
34073;BME280;20346;52.702;16.886;2023-01-30T00:05:37;100490.36;;;0.55;84.23
34073;BME280;20346;52.702;16.886;2023-01-30T00:08:23;100488.30;;;0.54;84.24
34073;BME280;20346;52.702;16.886;2023-01-30T00:11:10;100480.81;;;0.53;84.31
34073;BME280;20346;52.702;16.886;2023-01-30T00:13:57;100474.34;;;0.53;84.26
34073;BME280;20346;52.702;16.886;2023-01-30T00:16:43;100474.36;;;0.52;84.35
34073;BME280;20346;52.702;16.886;2023-01-30T00:19:29;100466.52;;;0.50;84.31
34073;BME280;20346;52.702;16.886;2023-01-30T00:22:16;100467.88;;;0.50;84.29
34073;BME280;20346;52.702;16.886;2023-01-30T00:25:02;100452.95;;;0.50;84.25
34073;BME280;20346;52.702;16.886;2023-01-30T00:27:48;100445.66;;;0.50;84.34
34073;BME280;20346;52.702;16.886;2023-01-30T00:30:35;100440.73;;;0.50;84.25
34073;BME280;20346;52.702;16.886;2023-01-30T00:33:21;100436.84;;;0.49;84.25
34073;BME280;20346;52.702;16.886;2023-01-30T00:36:08;100426.11;;;0.48;84.21
34073;BME280;20346;52.702;16.886;2023-01-30T00:38:55;100419.16;;;0.48;84.23
34073;BME280;20346;52.702;16.886;2023-01-30T00:41:42;100420.86;;;0.48;84.20
34073;BME280;20346;52.702;16.886;2023-01-30T00:44:47;100418.66;;;0.48;84.25
34073;BME280;20346;52.702;16.886;2023-01-30T00:47:51;100413.74;;;0.48;84.22
34073;BME280;20346;52.702;16.886;2023-01-30T00:50:38;100413.90;;;0.47;84.23
34073;BME280;20346;52.702;16.886;2023-01-30T00:53:30;100411.52;;;0.47;84.27
34073;BME280;20346;52.702;16.886;2023-01-30T00:56:16;100406.39;;;0.45;84.31
34073;BME280;20346;52.702;16.886;2023-01-30T00:59:02;100405.31;;;0.43;84.29
34073;BME280;20346;52.702;16.886;2023-01-30T01:01:48;100393.24;;;0.41;84.25
34073;BME280;20346;52.702;16.886;2023-01-30T01:04:34;100393.01;;;0.38;84.30
34073;BME280;20346;52.702;16.886;2023-01-30T01:07:28;100389.41;;;0.37;84.37
34073;BME280;20346;52.702;16.886;2023-01-30T01:10:14;100381.59;;;0.36;84.37
34073;BME280;20346;52.702;16.886;2023-01-30T01:13:01;100375.65;;;0.35;84.42
34073;BME280;20346;52.702;16.886;2023-01-30T01:15:48;100365.77;;;0.33;84.38
34073;BME280;20346;52.702;16.886;2023-01-30T01:18:34;100355.59;;;0.32;84.32
34073;BME280;20346;52.702;16.886;2023-01-30T01:21:21;100342.88;;;0.32;84.32
34073;BME280;20346;52.702;16.886;2023-01-30T01:24:08;100345.75;;;0.32;84.37
34073;BME280;20346;52.702;16.886;2023-01-30T01:26:57;100337.30;;;0.33;84.38
34073;BME280;20346;52.702;16.886;2023-01-30T01:29:43;100331.02;;;0.33;84.32
34073;BME280;20346;52.702;16.886;2023-01-30T01:32:30;100321.02;;;0.33;84.34
34073;BME280;20346;52.702;16.886;2023-01-30T01:35:16;100308.96;;;0.32;84.31
34073;BME280;20346;52.702;16.886;2023-01-30T01:38:04;100294.86;;;0.30;84.27
34073;BME280;20346;52.702;16.886;2023-01-30T01:40:50;100279.77;;;0.30;84.33
34073;BME280;20346;52.702;16.886;2023-01-30T01:44:07;100257.23;;;0.31;84.32
34073;BME280;20346;52.702;16.886;2023-01-30T01:46:55;100245.19;;;0.30;84.30
34073;BME280;20346;52.702;16.886;2023-01-30T01:49:42;100232.99;;;0.31;84.26
34073;BME280;20346;52.702;16.886;2023-01-30T01:52:29;100224.52;;;0.31;84.32
34073;BME280;20346;52.702;16.886;2023-01-30T01:55:15;100220.42;;;0.30;84.34
34073;BME280;20346;52.702;16.886;2023-01-30T01:58:04;100219.84;;;0.26;84.39
34073;BME280;20346;52.702;16.886;2023-01-30T02:00:53;100201.96;;;0.22;84.38
34073;BME280;20346;52.702;16.886;2023-01-30T02:03:42;100197.65;;;0.18;84.48
34073;BME280;20346;52.702;16.886;2023-01-30T02:06:30;100192.88;;;0.17;84.48
34073;BME280;20346;52.702;16.886;2023-01-30T02:09:17;100189.15;;;0.17;84.46
34073;BME280;20346;52.702;16.886;2023-01-30T02:12:03;100179.02;;;0.19;84.49
34073;BME280;20346;52.702;16.886;2023-01-30T02:14:50;100164.13;;;0.20;84.51
34073;BME280;20346;52.702;16.886;2023-01-30T02:17:39;100145.16;;;0.20;84.47
34073;BME280;20346;52.702;16.886;2023-01-30T02:47:40;100086.58;;;0.24;84.26
34073;BME280;20346;52.702;16.886;2023-01-30T02:50:43;100085.93;;;0.26;84.28
34073;BME280;20346;52.702;16.886;2023-01-30T02:53:31;100083.55;;;0.26;84.17
34073;BME280;20346;52.702;16.886;2023-01-30T02:56:18;100075.42;;;0.26;84.13
34073;BME280;20346;52.702;16.886;2023-01-30T02:59:04;100068.82;;;0.26;84.07
34073;BME280;20346;52.702;16.886;2023-01-30T03:11:11;100048.31;;;0.26;84.06
34073;BME280;20346;52.702;16.886;2023-01-30T03:16:43;100051.34;;;0.25;84.07
34073;BME280;20346;52.702;16.886;2023-01-30T03:19:31;100051.17;;;0.25;84.04
34073;BME280;20346;52.702;16.886;2023-01-30T03:22:18;100044.73;;;0.25;83.98
34073;BME280;20346;52.702;16.886;2023-01-30T03:25:05;100034.88;;;0.24;84.00
34073;BME280;20346;52.702;16.886;2023-01-30T03:27:52;100027.25;;;0.24;83.96
34073;BME280;20346;52.702;16.886;2023-01-30T03:30:38;100030.16;;;0.25;83.95
34073;BME280;20346;52.702;16.886;2023-01-30T03:33:24;100011.67;;;0.25;83.99
34073;BME280;20346;52.702;16.886;2023-01-30T03:36:11;100000.80;;;0.24;84.01
34073;BME280;20346;52.702;16.886;2023-01-30T03:38:57;100001.48;;;0.24;83.96
34073;BME280;20346;52.702;16.886;2023-01-30T03:41:43;100000.27;;;0.22;84.00
34073;BME280;20346;52.702;16.886;2023-01-30T03:44:29;99993.64;;;0.21;84.00
34073;BME280;20346;52.702;16.886;2023-01-30T03:47:16;99988.50;;;0.17;84.04
34073;BME280;20346;52.702;16.886;2023-01-30T03:50:02;99984.05;;;0.15;84.07
34073;BME280;20346;52.702;16.886;2023-01-30T03:52:48;99978.58;;;0.12;84.24
34073;BME280;20346;52.702;16.886;2023-01-30T03:55:34;99967.52;;;0.09;84.18
34073;BME280;20346;52.702;16.886;2023-01-30T03:58:20;99957.80;;;0.05;84.26
34073;BME280;20346;52.702;16.886;2023-01-30T04:01:06;99959.79;;;0.01;84.36
34073;BME280;20346;52.702;16.886;2023-01-30T04:03:53;99964.34;;;-0.02;84.36
34073;BME280;20346;52.702;16.886;2023-01-30T04:06:39;99955.48;;;-0.04;84.39
34073;BME280;20346;52.702;16.886;2023-01-30T04:09:25;99955.96;;;-0.06;84.38
34073;BME280;20346;52.702;16.886;2023-01-30T04:12:11;99954.90;;;-0.09;84.42
34073;BME280;20346;52.702;16.886;2023-01-30T04:14:57;99940.80;;;-0.11;84.55
34073;BME280;20346;52.702;16.886;2023-01-30T04:17:43;99935.00;;;-0.14;84.56
34073;BME280;20346;52.702;16.886;2023-01-30T04:20:29;99926.31;;;-0.17;84.62
34073;BME280;20346;52.702;16.886;2023-01-30T04:23:15;99931.72;;;-0.18;84.60
34073;BME280;20346;52.702;16.886;2023-01-30T04:26:01;99932.89;;;-0.18;84.70
34073;BME280;20346;52.702;16.886;2023-01-30T04:28:48;99924.42;;;-0.18;84.68
34073;BME280;20346;52.702;16.886;2023-01-30T04:31:34;99915.07;;;-0.21;84.67
34073;BME280;20346;52.702;16.886;2023-01-30T04:34:20;99913.38;;;-0.20;84.72
34073;BME280;20346;52.702;16.886;2023-01-30T04:37:06;99907.61;;;-0.21;84.63
34073;BME280;20346;52.702;16.886;2023-01-30T04:39:52;99893.91;;;-0.20;84.75
34073;BME280;20346;52.702;16.886;2023-01-30T04:42:38;99881.90;;;-0.19;84.84
34073;BME280;20346;52.702;16.886;2023-01-30T04:45:24;99868.02;;;-0.19;84.84
34073;BME280;20346;52.702;16.886;2023-01-30T04:48:11;99875.13;;;-0.19;84.80
34073;BME280;20346;52.702;16.886;2023-01-30T04:50:57;99881.71;;;-0.20;84.79
34073;BME280;20346;52.702;16.886;2023-01-30T04:53:43;99880.36;;;-0.21;84.82
34073;BME280;20346;52.702;16.886;2023-01-30T04:56:29;99866.30;;;-0.20;84.93
34073;BME280;20346;52.702;16.886;2023-01-30T04:59:16;99857.00;;;-0.19;84.93
34073;BME280;20346;52.702;16.886;2023-01-30T05:02:02;99849.23;;;-0.18;84.95
34073;BME280;20346;52.702;16.886;2023-01-30T05:04:48;99838.91;;;-0.17;84.96
34073;BME280;20346;52.702;16.886;2023-01-30T05:07:35;99821.31;;;-0.16;84.98
34073;BME280;20346;52.702;16.886;2023-01-30T05:10:21;99812.34;;;-0.16;84.99
34073;BME280;20346;52.702;16.886;2023-01-30T05:13:07;99807.77;;;-0.16;84.98
34073;BME280;20346;52.702;16.886;2023-01-30T05:15:53;99801.66;;;-0.16;84.97
34073;BME280;20346;52.702;16.886;2023-01-30T05:18:39;99788.63;;;-0.16;85.03
34073;BME280;20346;52.702;16.886;2023-01-30T05:21:26;99784.73;;;-0.16;85.03
34073;BME280;20346;52.702;16.886;2023-01-30T05:24:15;99780.67;;;-0.15;85.10
34073;BME280;20346;52.702;16.886;2023-01-30T05:27:01;99770.83;;;-0.17;85.06
34073;BME280;20346;52.702;16.886;2023-01-30T05:29:48;99766.59;;;-0.17;85.16
34073;BME280;20346;52.702;16.886;2023-01-30T05:32:34;99758.65;;;-0.15;85.07
34073;BME280;20346;52.702;16.886;2023-01-30T05:35:20;99751.20;;;-0.16;85.17
34073;BME280;20346;52.702;16.886;2023-01-30T05:38:06;99747.30;;;-0.15;85.15
34073;BME280;20346;52.702;16.886;2023-01-30T05:40:59;99742.90;;;-0.16;85.13
34073;BME280;20346;52.702;16.886;2023-01-30T05:43:49;99732.23;;;-0.16;85.15
34073;BME280;20346;52.702;16.886;2023-01-30T05:46:35;99738.14;;;-0.16;85.25
34073;BME280;20346;52.702;16.886;2023-01-30T05:49:21;99729.33;;;-0.17;85.21
34073;BME280;20346;52.702;16.886;2023-01-30T05:52:08;99730.70;;;-0.17;85.25
34073;BME280;20346;52.702;16.886;2023-01-30T05:54:54;99722.06;;;-0.16;85.21
34073;BME280;20346;52.702;16.886;2023-01-30T05:57:40;99713.94;;;-0.16;85.25
34073;BME280;20346;52.702;16.886;2023-01-30T06:00:26;99717.16;;;-0.15;85.27
34073;BME280;20346;52.702;16.886;2023-01-30T06:03:12;99718.34;;;-0.16;85.28
34073;BME280;20346;52.702;16.886;2023-01-30T06:05:58;99720.22;;;-0.15;85.18
34073;BME280;20346;52.702;16.886;2023-01-30T06:08:45;99720.75;;;-0.13;85.26
34073;BME280;20346;52.702;16.886;2023-01-30T06:11:31;99718.90;;;-0.11;85.30
34073;BME280;20346;52.702;16.886;2023-01-30T06:14:18;99712.31;;;-0.10;85.35
34073;BME280;20346;52.702;16.886;2023-01-30T06:17:04;99707.27;;;-0.08;85.33
34073;BME280;20346;52.702;16.886;2023-01-30T06:19:49;99707.27;;;-0.06;85.30
34073;BME280;20346;52.702;16.886;2023-01-30T06:22:36;99705.79;;;-0.04;85.36
34073;BME280;20346;52.702;16.886;2023-01-30T06:25:22;99704.79;;;-0.02;85.35
34073;BME280;20346;52.702;16.886;2023-01-30T06:28:08;99699.05;;;-0.01;85.32
34073;BME280;20346;52.702;16.886;2023-01-30T06:30:54;99695.48;;;-0.01;85.46
34073;BME280;20346;52.702;16.886;2023-01-30T06:33:41;99691.23;;;0.00;85.63
34073;BME280;20346;52.702;16.886;2023-01-30T06:36:29;99685.14;;;0.01;85.76
34073;BME280;20346;52.702;16.886;2023-01-30T06:39:15;99680.40;;;-0.01;85.93
34073;BME280;20346;52.702;16.886;2023-01-30T06:42:01;99675.46;;;-0.04;86.34
34073;BME280;20346;52.702;16.886;2023-01-30T06:44:47;99673.23;;;-0.05;86.45
34073;BME280;20346;52.702;16.886;2023-01-30T06:47:33;99661.88;;;-0.07;86.44
34073;BME280;20346;52.702;16.886;2023-01-30T06:50:20;99667.96;;;-0.08;86.32
34073;BME280;20346;52.702;16.886;2023-01-30T06:53:07;99665.59;;;-0.08;86.09
34073;BME280;20346;52.702;16.886;2023-01-30T06:55:53;99660.52;;;-0.07;86.00
34073;BME280;20346;52.702;16.886;2023-01-30T06:58:39;99661.02;;;-0.08;86.05
34073;BME280;20346;52.702;16.886;2023-01-30T07:01:26;99661.36;;;-0.07;86.00
34073;BME280;20346;52.702;16.886;2023-01-30T07:04:12;99658.30;;;-0.08;86.01
34073;BME280;20346;52.702;16.886;2023-01-30T07:06:58;99653.54;;;-0.10;85.90
34073;BME280;20346;52.702;16.886;2023-01-30T07:09:45;99632.52;;;-0.11;86.08
34073;BME280;20346;52.702;16.886;2023-01-30T07:12:31;99639.47;;;-0.11;86.06
34073;BME280;20346;52.702;16.886;2023-01-30T07:15:17;99638.46;;;-0.09;86.10
34073;BME280;20346;52.702;16.886;2023-01-30T07:18:03;99641.87;;;-0.09;86.17
34073;BME280;20346;52.702;16.886;2023-01-30T07:20:49;99632.91;;;-0.06;86.19
34073;BME280;20346;52.702;16.886;2023-01-30T07:23:35;99632.77;;;-0.05;86.06
34073;BME280;20346;52.702;16.886;2023-01-30T07:26:21;99633.13;;;-0.03;86.11
34073;BME280;20346;52.702;16.886;2023-01-30T07:29:07;99629.76;;;-0.00;86.15
34073;BME280;20346;52.702;16.886;2023-01-30T07:31:53;99626.69;;;0.01;86.20
34073;BME280;20346;52.702;16.886;2023-01-30T07:34:39;99631.98;;;0.03;86.20
34073;BME280;20346;52.702;16.886;2023-01-30T07:37:27;99624.20;;;0.06;86.20
34073;BME280;20346;52.702;16.886;2023-01-30T07:40:13;99621.00;;;0.08;86.25
34073;BME280;20346;52.702;16.886;2023-01-30T07:43:00;99613.23;;;0.11;86.21
34073;BME280;20346;52.702;16.886;2023-01-30T07:45:47;99614.80;;;0.14;86.24
34073;BME280;20346;52.702;16.886;2023-01-30T07:48:33;99612.61;;;0.16;86.21
34073;BME280;20346;52.702;16.886;2023-01-30T07:51:20;99610.93;;;0.17;86.20
34073;BME280;20346;52.702;16.886;2023-01-30T07:54:06;99615.70;;;0.20;86.22
34073;BME280;20346;52.702;16.886;2023-01-30T07:56:52;99611.84;;;0.23;86.24
34073;BME280;20346;52.702;16.886;2023-01-30T07:59:38;99613.57;;;0.26;86.31
34073;BME280;20346;52.702;16.886;2023-01-30T08:02:25;99610.88;;;0.29;86.32
34073;BME280;20346;52.702;16.886;2023-01-30T08:05:11;99603.61;;;0.32;86.37
34073;BME280;20346;52.702;16.886;2023-01-30T08:07:57;99593.98;;;0.35;86.32
34073;BME280;20346;52.702;16.886;2023-01-30T08:10:47;99589.60;;;0.37;86.34
34073;BME280;20346;52.702;16.886;2023-01-30T08:13:33;99595.03;;;0.39;86.33
34073;BME280;20346;52.702;16.886;2023-01-30T08:16:20;99588.80;;;0.43;86.43
34073;BME280;20346;52.702;16.886;2023-01-30T08:19:06;99586.95;;;0.45;86.33
34073;BME280;20346;52.702;16.886;2023-01-30T08:21:52;99585.27;;;0.48;86.41
34073;BME280;20346;52.702;16.886;2023-01-30T08:24:39;99585.80;;;0.50;86.42
34073;BME280;20346;52.702;16.886;2023-01-30T08:27:25;99592.91;;;0.53;86.48
34073;BME280;20346;52.702;16.886;2023-01-30T08:30:11;99590.73;;;0.56;86.48
34073;BME280;20346;52.702;16.886;2023-01-30T08:32:57;99590.58;;;0.57;86.53
34073;BME280;20346;52.702;16.886;2023-01-30T08:35:44;99575.50;;;0.59;86.50
34073;BME280;20346;52.702;16.886;2023-01-30T08:38:30;99574.99;;;0.60;86.50
34073;BME280;20346;52.702;16.886;2023-01-30T08:41:16;99574.34;;;0.63;86.52
34073;BME280;20346;52.702;16.886;2023-01-30T08:44:02;99571.65;;;0.66;86.54
34073;BME280;20346;52.702;16.886;2023-01-30T08:46:48;99569.98;;;0.70;86.58
34073;BME280;20346;52.702;16.886;2023-01-30T08:49:34;99566.44;;;0.73;86.59
34073;BME280;20346;52.702;16.886;2023-01-30T08:52:21;99563.24;;;0.77;86.60
34073;BME280;20346;52.702;16.886;2023-01-30T08:55:07;99565.30;;;0.80;86.57
34073;BME280;20346;52.702;16.886;2023-01-30T08:57:55;99566.51;;;0.83;86.57
34073;BME280;20346;52.702;16.886;2023-01-30T09:00:41;99570.42;;;0.86;86.68
34073;BME280;20346;52.702;16.886;2023-01-30T09:03:29;99569.27;;;0.90;86.71
34073;BME280;20346;52.702;16.886;2023-01-30T09:06:15;99564.37;;;0.94;86.72
34073;BME280;20346;52.702;16.886;2023-01-30T09:09:01;99570.50;;;0.97;86.70
34073;BME280;20346;52.702;16.886;2023-01-30T09:11:47;99573.23;;;1.01;86.73
34073;BME280;20346;52.702;16.886;2023-01-30T09:14:34;99574.92;;;1.04;86.76
34073;BME280;20346;52.702;16.886;2023-01-30T09:17:20;99580.20;;;1.07;86.71
34073;BME280;20346;52.702;16.886;2023-01-30T09:20:07;99571.23;;;1.10;86.72
34073;BME280;20346;52.702;16.886;2023-01-30T09:22:54;99573.45;;;1.14;86.80
34073;BME280;20346;52.702;16.886;2023-01-30T09:25:40;99572.62;;;1.18;86.82
34073;BME280;20346;52.702;16.886;2023-01-30T09:28:26;99573.65;;;1.22;86.84
34073;BME280;20346;52.702;16.886;2023-01-30T09:31:12;99575.38;;;1.26;86.85
34073;BME280;20346;52.702;16.886;2023-01-30T09:33:58;99575.57;;;1.31;86.87
34073;BME280;20346;52.702;16.886;2023-01-30T09:36:45;99566.44;;;1.38;86.96
34073;BME280;20346;52.702;16.886;2023-01-30T09:39:31;99565.27;;;1.44;86.94
34073;BME280;20346;52.702;16.886;2023-01-30T09:42:27;99568.00;;;1.48;86.94
34073;BME280;20346;52.702;16.886;2023-01-30T09:48:15;99564.10;;;1.58;86.98
34073;BME280;20346;52.702;16.886;2023-01-30T09:51:06;99557.15;;;1.62;87.03
34073;BME280;20346;52.702;16.886;2023-01-30T09:56:42;99543.74;;;1.66;87.00
34073;BME280;20346;52.702;16.886;2023-01-30T09:59:30;99537.13;;;1.69;87.06
34073;BME280;20346;52.702;16.886;2023-01-30T10:05:26;99540.54;;;1.76;87.08
34073;BME280;20346;52.702;16.886;2023-01-30T10:11:29;99539.20;;;1.82;87.13
34073;BME280;20346;52.702;16.886;2023-01-30T10:14:25;99531.72;;;1.83;87.10
34073;BME280;20346;52.702;16.886;2023-01-30T10:23:06;99522.39;;;1.93;87.21
34073;BME280;20346;52.702;16.886;2023-01-30T10:26:00;99508.97;;;1.95;87.31
34073;BME280;20346;52.702;16.886;2023-01-30T10:28:59;99502.68;;;1.99;87.32
34073;BME280;20346;52.702;16.886;2023-01-30T10:31:50;99496.74;;;2.04;87.27
34073;BME280;20346;52.702;16.886;2023-01-30T10:34:39;99488.73;;;2.09;87.29
34073;BME280;20346;52.702;16.886;2023-01-30T10:37:28;99500.97;;;2.20;87.38
34073;BME280;20346;52.702;16.886;2023-01-30T10:40:18;99501.81;;;2.30;87.40
34073;BME280;20346;52.702;16.886;2023-01-30T10:43:22;99503.17;;;2.34;87.27
34073;BME280;20346;52.702;16.886;2023-01-30T10:46:18;99497.21;;;2.38;87.26
34073;BME280;20346;52.702;16.886;2023-01-30T10:52:53;99489.39;;;2.45;87.32
34073;BME280;20346;52.702;16.886;2023-01-30T10:55:47;99482.23;;;2.47;87.29
34073;BME280;20346;52.702;16.886;2023-01-30T11:01:32;99489.20;;;2.54;87.24
34073;BME280;20346;52.702;16.886;2023-01-30T11:07:10;99480.36;;;2.56;87.25
34073;BME280;20346;52.702;16.886;2023-01-30T11:09:58;99478.14;;;2.56;87.32
34073;BME280;20346;52.702;16.886;2023-01-30T11:12:44;99479.83;;;2.59;87.29
34073;BME280;20346;52.702;16.886;2023-01-30T11:15:38;99469.94;;;2.62;87.32
34073;BME280;20346;52.702;16.886;2023-01-30T11:18:24;99471.64;;;2.64;87.30
34073;BME280;20346;52.702;16.886;2023-01-30T11:21:12;99471.11;;;2.66;87.33
34073;BME280;20346;52.702;16.886;2023-01-30T11:24:04;99464.13;;;2.71;87.41
34073;BME280;20346;52.702;16.886;2023-01-30T11:27:20;99467.67;;;2.79;87.57
34073;BME280;20346;52.702;16.886;2023-01-30T11:33:10;99460.79;;;3.03;87.63
34073;BME280;20346;52.702;16.886;2023-01-30T11:35:59;99453.62;;;3.08;87.48
34073;BME280;20346;52.702;16.886;2023-01-30T11:38:59;99448.80;;;3.14;87.47
34073;BME280;20346;52.702;16.886;2023-01-30T11:44:39;99446.86;;;3.26;87.51
34073;BME280;20346;52.702;16.886;2023-01-30T11:47:26;99447.35;;;3.29;87.43
34073;BME280;20346;52.702;16.886;2023-01-30T11:50:16;99447.86;;;3.30;87.31
34073;BME280;20346;52.702;16.886;2023-01-30T11:53:03;99446.67;;;3.30;87.40
34073;BME280;20346;52.702;16.886;2023-01-30T11:55:53;99443.42;;;3.32;87.40
34073;BME280;20346;52.702;16.886;2023-01-30T11:58:40;99434.56;;;3.33;87.38
34073;BME280;20346;52.702;16.886;2023-01-30T12:01:32;99426.72;;;3.34;87.44
34073;BME280;20346;52.702;16.886;2023-01-30T12:04:18;99417.33;;;3.38;87.51
34073;BME280;20346;52.702;16.886;2023-01-30T12:07:12;99411.52;;;3.43;87.49
34073;BME280;20346;52.702;16.886;2023-01-30T12:10:16;99415.73;;;3.50;87.53
34073;BME280;20346;52.702;16.886;2023-01-30T12:13:05;99411.23;;;3.57;87.61
34073;BME280;20346;52.702;16.886;2023-01-30T12:16:00;99406.55;;;3.65;87.59
34073;BME280;20346;52.702;16.886;2023-01-30T12:19:00;99398.82;;;3.74;87.57
34073;BME280;20346;52.702;16.886;2023-01-30T12:25:19;99390.60;;;3.78;87.43
34073;BME280;20346;52.702;16.886;2023-01-30T12:30:55;99383.58;;;3.82;87.53
34073;BME280;20346;52.702;16.886;2023-01-30T12:33:43;99386.30;;;3.83;87.44
34073;BME280;20346;52.702;16.886;2023-01-30T12:42:46;99387.30;;;3.85;87.48
34073;BME280;20346;52.702;16.886;2023-01-30T12:45:20;99377.24;;;3.85;87.50
34073;BME280;20346;52.702;16.886;2023-01-30T12:51:26;99380.46;;;3.88;87.43
34073;BME280;20346;52.702;16.886;2023-01-30T13:00:41;99370.20;;;3.91;87.42
34073;BME280;20346;52.702;16.886;2023-01-30T13:03:36;99369.55;;;3.88;87.38
34073;BME280;20346;52.702;16.886;2023-01-30T13:12:25;99378.08;;;3.67;87.16
34073;BME280;20346;52.702;16.886;2023-01-30T13:18:06;99367.34;;;3.49;87.17
34073;BME280;20346;52.702;16.886;2023-01-30T13:21:06;99373.52;;;3.44;87.26
34073;BME280;20346;52.702;16.886;2023-01-30T13:26:53;99377.12;;;3.40;87.37
34073;BME280;20346;52.702;16.886;2023-01-30T13:29:43;99358.92;;;3.37;87.42
34073;BME280;20346;52.702;16.886;2023-01-30T13:35:40;99354.88;;;3.28;87.29
34073;BME280;20346;52.702;16.886;2023-01-30T13:38:27;99354.91;;;3.24;87.35
34073;BME280;20346;52.702;16.886;2023-01-30T13:41:15;99350.65;;;3.24;87.46
34073;BME280;20346;52.702;16.886;2023-01-30T13:44:14;99354.05;;;3.24;87.49
34073;BME280;20346;52.702;16.886;2023-01-30T13:47:05;99352.86;;;3.25;87.60
34073;BME280;20346;52.702;16.886;2023-01-30T13:50:09;99349.11;;;3.25;87.56
34073;BME280;20346;52.702;16.886;2023-01-30T13:53:13;99346.05;;;3.25;87.56
34073;BME280;20346;52.702;16.886;2023-01-30T14:04:51;99350.46;;;3.27;87.67
34073;BME280;20346;52.702;16.886;2023-01-30T14:07:38;99352.68;;;3.26;87.69
34073;BME280;20346;52.702;16.886;2023-01-30T14:10:25;99352.17;;;3.26;87.69
34073;BME280;20346;52.702;16.886;2023-01-30T14:13:12;99349.63;;;3.25;87.71
34073;BME280;20346;52.702;16.886;2023-01-30T14:16:01;99349.63;;;3.24;87.68
34073;BME280;20346;52.702;16.886;2023-01-30T14:18:48;99348.11;;;3.22;87.62
34073;BME280;20346;52.702;16.886;2023-01-30T14:21:34;99353.06;;;3.20;87.65
34073;BME280;20346;52.702;16.886;2023-01-30T14:24:21;99364.32;;;3.17;87.67
34073;BME280;20346;52.702;16.886;2023-01-30T14:36:32;99404.69;;;2.83;87.46
34073;BME280;20346;52.702;16.886;2023-01-30T14:42:27;99408.98;;;2.76;87.68
34073;BME280;20346;52.702;16.886;2023-01-30T14:45:14;99407.45;;;2.76;87.73
34073;BME280;20346;52.702;16.886;2023-01-30T14:57:19;99412.38;;;2.75;87.70
34073;BME280;20346;52.702;16.886;2023-01-30T15:00:16;99405.92;;;2.75;87.75
34073;BME280;20346;52.702;16.886;2023-01-30T15:03:07;99399.29;;;2.74;87.72
34073;BME280;20346;52.702;16.886;2023-01-30T15:05:55;99392.15;;;2.73;87.66
34073;BME280;20346;52.702;16.886;2023-01-30T15:08:44;99400.33;;;2.71;87.72
34073;BME280;20346;52.702;16.886;2023-01-30T15:11:31;99399.65;;;2.67;87.64
34073;BME280;20346;52.702;16.886;2023-01-30T15:14:26;99399.67;;;2.62;87.61
34073;BME280;20346;52.702;16.886;2023-01-30T15:17:17;99399.73;;;2.56;87.59
34073;BME280;20346;52.702;16.886;2023-01-30T15:32:31;99391.92;;;2.49;87.74
34073;BME280;20346;52.702;16.886;2023-01-30T15:38:25;99401.10;;;2.52;87.84
34073;BME280;20346;52.702;16.886;2023-01-30T15:41:12;99406.88;;;2.55;87.88
34073;BME280;20346;52.702;16.886;2023-01-30T15:44:09;99410.78;;;2.56;87.88
34073;BME280;20346;52.702;16.886;2023-01-30T15:47:17;99397.50;;;2.58;87.87
34073;BME280;20346;52.702;16.886;2023-01-30T15:50:07;99397.48;;;2.61;87.85
34073;BME280;20346;52.702;16.886;2023-01-30T15:52:54;99404.09;;;2.63;87.90
34073;BME280;20346;52.702;16.886;2023-01-30T15:55:43;99401.36;;;2.65;87.96
34073;BME280;20346;52.702;16.886;2023-01-30T15:58:29;99403.23;;;2.68;87.95
34073;BME280;20346;52.702;16.886;2023-01-30T16:01:18;99402.54;;;2.70;87.90
34073;BME280;20346;52.702;16.886;2023-01-30T16:04:04;99415.13;;;2.72;87.92
34073;BME280;20346;52.702;16.886;2023-01-30T16:07:42;99418.17;;;2.75;87.92
34073;BME280;20346;52.702;16.886;2023-01-30T16:10:22;99427.18;;;2.76;87.92
34073;BME280;20346;52.702;16.886;2023-01-30T16:13:09;99436.20;;;2.78;87.93
34073;BME280;20346;52.702;16.886;2023-01-30T16:19:02;99448.61;;;2.81;87.99
34073;BME280;20346;52.702;16.886;2023-01-30T16:21:51;99436.36;;;2.81;87.96
34073;BME280;20346;52.702;16.886;2023-01-30T16:24:41;99444.53;;;2.80;87.93
34073;BME280;20346;52.702;16.886;2023-01-30T16:27:32;99454.07;;;2.79;87.98
34073;BME280;20346;52.702;16.886;2023-01-30T16:30:23;99456.45;;;2.78;87.93
34073;BME280;20346;52.702;16.886;2023-01-30T16:33:12;99462.75;;;2.77;87.88
34073;BME280;20346;52.702;16.886;2023-01-30T16:36:27;99470.58;;;2.76;87.90
34073;BME280;20346;52.702;16.886;2023-01-30T16:39:28;99473.65;;;2.72;87.82
34073;BME280;20346;52.702;16.886;2023-01-30T16:42:25;99475.54;;;2.69;87.80
34073;BME280;20346;52.702;16.886;2023-01-30T16:51:08;99484.44;;;2.57;87.85
34073;BME280;20346;52.702;16.886;2023-01-30T16:53:58;99488.86;;;2.54;87.82
34073;BME280;20346;52.702;16.886;2023-01-30T16:56:46;99491.08;;;2.52;87.88
34073;BME280;20346;52.702;16.886;2023-01-30T16:59:33;99497.20;;;2.50;87.84
34073;BME280;20346;52.702;16.886;2023-01-30T17:02:32;99511.67;;;2.48;87.84
34073;BME280;20346;52.702;16.886;2023-01-30T17:05:20;99515.41;;;2.45;87.82
34073;BME280;20346;52.702;16.886;2023-01-30T17:17:21;99513.88;;;2.41;87.91
34073;BME280;20346;52.702;16.886;2023-01-30T17:20:09;99518.81;;;2.40;87.96
34073;BME280;20346;52.702;16.886;2023-01-30T17:22:56;99523.23;;;2.41;87.98
34073;BME280;20346;52.702;16.886;2023-01-30T17:25:44;99523.92;;;2.41;87.94
34073;BME280;20346;52.702;16.886;2023-01-30T17:28:31;99519.48;;;2.40;87.95
34073;BME280;20346;52.702;16.886;2023-01-30T17:31:18;99523.58;;;2.40;87.95
34073;BME280;20346;52.702;16.886;2023-01-30T17:34:05;99529.52;;;2.40;87.97
34073;BME280;20346;52.702;16.886;2023-01-30T17:36:52;99532.41;;;2.40;87.98
34073;BME280;20346;52.702;16.886;2023-01-30T17:39:38;99533.10;;;2.41;87.97